Date,TemperatureHighF,TemperatureAvgF,TemperatureLowF,DewpointHighF,DewpointAvgF,DewpointLowF,HumidityHigh,HumidityAvg,HumidityLow,PressureMaxIn,PressureMinIn,WindSpeedMaxMPH,WindSpeedAvgMPH,GustSpeedMaxMPH,PrecipitationSumIn
2013-4-1,37.3,29.2,24.1,20.9,16.3,13.3,75,59,43,29.68,29.43,19,6,19,0.00
2013-4-2,38.9,30.7,22.9,20.0,16.6,14.4,72,56,39,29.82,29.68,14,6,14,0.00
2013-4-3,45.4,33.2,22.7,23.2,18.6,13.7,75,56,35,29.98,29.77,10,4,10,0.00
2013-4-4,55.6,40.8,29.9,36.9,27.5,20.9,71,60,44,29.77,29.47,15,7,15,0.00
2013-4-5,47.2,37.3,29.9,28.2,24.9,22.0,73,62,43,29.78,29.57,13,4,13,0.00
2013-4-6,57.2,43.6,30.6,47.8,35.8,23.7,92,75,54,29.68,29.06,22,10,22,0.03
2013-4-7,54.0,40.9,35.5,46.8,34.4,29.9,91,78,61,29.49,29.07,23,7,23,0.00
2013-4-8,46.1,39.5,34.9,42.8,36.0,29.5,94,87,80,29.54,29.19,26,7,26,0.39
2013-4-9,37.8,36.0,33.5,37.0,34.8,31.6,97,95,92,29.58,29.43,23,7,23,0.88
2013-4-10,36.2,33.9,31.0,34.1,32.1,29.7,97,93,84,29.65,29.46,20,8,20,0.96
2013-4-11,36.5,34.6,33.1,35.5,33.3,31.4,97,95,93,29.48,29.12,24,9,24,0.27
2013-4-12,38.5,34.2,32.0,35.6,32.7,30.3,97,94,87,29.30,29.06,15,4,15,0.15
2013-4-13,37.1,33.8,30.6,30.5,28.1,25.5,92,80,68,29.51,29.28,17,6,17,0.02
2013-4-14,47.2,35.9,29.2,43.7,32.1,24.7,89,86,79,29.54,29.12,22,8,22,0.03
2013-4-15,59.6,47.0,39.6,49.9,42.0,34.4,98,84,49,29.48,29.09,23,7,23,0.74
2013-4-16,50.2,40.6,32.8,36.3,32.5,28.4,85,74,55,29.82,29.47,20,5,20,0.00
2013-4-17,40.7,38.4,35.3,39.3,35.1,31.1,96,88,79,29.87,29.43,18,5,18,0.62
2013-4-18,51.3,42.5,38.9,50.8,41.1,34.4,98,95,83,29.44,28.84,26,7,26,0.43
2013-4-19,38.9,34.3,29.2,34.7,28.1,20.4,90,78,63,29.41,28.85,26,12,26,0.02
2013-4-20,44.3,33.6,25.6,23.6,19.0,13.7,79,57,31,29.91,29.41,14,5,14,0.00
2013-4-21,49.5,38.7,30.2,31.6,27.5,22.7,79,65,46,30.01,29.77,20,8,20,0.00
2013-4-22,66.6,51.4,40.3,44.6,37.5,31.5,75,60,39,29.78,29.53,17,7,17,0.00
2013-4-23,51.5,42.3,36.4,45.9,35.1,28.5,90,76,61,29.53,29.39,15,6,15,0.04
2013-4-24,52.7,42.3,32.4,31.5,27.8,23.4,77,58,33,29.54,29.48,24,5,24,0.00
2013-4-25,50.9,43.2,36.4,35.3,30.9,26.7,86,63,41,29.79,29.47,17,6,24,0.00
2013-4-26,68.8,52.9,36.5,46.4,38.3,27.0,73,59,43,29.79,29.64,22,10,22,0.00
2013-4-27,67.0,56.0,45.5,50.7,45.4,40.9,87,69,48,29.75,29.55,15,5,15,0.00
2013-4-28,74.0,58.0,40.9,47.0,43.0,36.2,86,61,33,29.54,29.32,11,2,11,0.00
2013-4-29,70.4,59.1,51.5,55.9,51.2,45.2,86,76,53,29.37,29.25,16,6,16,0.01
2013-4-30,84.2,69.2,56.5,64.3,55.5,50.6,94,66,33,29.41,29.21,20,10,20,0.32